createdAt,value
2022-08-19T00:05:00.797Z,17.90
2022-08-19T00:10:10.421Z,17.80
2022-08-19T00:15:20.780Z,17.90
2022-08-19T00:20:30.019Z,17.90
2022-08-19T00:25:34.718Z,17.80
2022-08-19T00:30:39.201Z,17.80
2022-08-19T00:35:44.789Z,17.80
2022-08-19T00:40:49.960Z,17.80
2022-08-19T00:45:54.599Z,17.80
2022-08-19T00:51:02.199Z,17.70
2022-08-19T00:56:07.718Z,17.60
2022-08-19T01:01:13.611Z,17.60
2022-08-19T01:06:20.078Z,17.50
2022-08-19T01:11:27.178Z,17.40
2022-08-19T01:16:34.973Z,17.30
2022-08-19T01:21:49.596Z,17.30
2022-08-19T01:26:55.790Z,17.30
2022-08-19T01:32:03.324Z,17.40
2022-08-19T01:37:12.098Z,17.40
2022-08-19T01:42:17.870Z,17.40
2022-08-19T01:47:22.123Z,17.40
2022-08-19T01:52:26.390Z,17.50
2022-08-19T01:57:32.242Z,17.50
2022-08-19T02:02:36.621Z,17.50
2022-08-19T02:07:42.954Z,17.60
2022-08-19T02:12:50.541Z,17.60
2022-08-19T02:17:55.215Z,17.60
2022-08-19T02:22:59.579Z,17.60
2022-08-19T02:28:06.890Z,17.50
2022-08-19T02:33:11.273Z,17.50
2022-08-19T02:38:29.514Z,17.50
2022-08-19T02:43:37.364Z,17.40
2022-08-19T02:48:42.954Z,17.40
2022-08-19T02:53:47.222Z,17.40
2022-08-19T02:58:53.059Z,17.30
2022-08-19T03:04:02.446Z,17.30
2022-08-19T03:09:06.862Z,17.30
2022-08-19T03:14:14.008Z,17.30
2022-08-19T03:19:22.086Z,17.30
2022-08-19T03:24:26.749Z,17.20
2022-08-19T03:29:34.251Z,17.20
2022-08-19T03:34:47.703Z,17.20
2022-08-19T03:39:52.154Z,17.20
2022-08-19T03:44:59.285Z,17.30
2022-08-19T03:50:04.446Z,17.40
2022-08-19T03:55:10.471Z,17.40
2022-08-19T04:00:18.391Z,17.40
2022-08-19T04:05:24.699Z,17.40
2022-08-19T04:10:32.303Z,17.30
2022-08-19T04:15:42.948Z,17.40
2022-08-19T04:20:49.691Z,17.40
2022-08-19T04:25:53.951Z,17.40
2022-08-19T04:30:59.930Z,17.40
2022-08-19T04:36:05.164Z,17.50
2022-08-19T04:41:27.236Z,17.50
2022-08-19T04:46:40.431Z,17.60
2022-08-19T04:51:56.874Z,17.60
2022-08-19T04:57:01.254Z,17.50
2022-08-19T05:02:11.486Z,17.40
2022-08-19T05:07:17.700Z,17.40
2022-08-19T05:12:22.066Z,17.40
2022-08-19T05:17:38.759Z,17.40
2022-08-19T05:22:46.628Z,17.40
2022-08-19T05:27:51.509Z,17.40
2022-08-19T05:32:57.614Z,17.40
2022-08-19T05:38:02.312Z,17.40
2022-08-19T05:43:10.518Z,17.40
2022-08-19T05:48:21.425Z,17.40
2022-08-19T05:53:30.073Z,17.40
2022-08-19T05:58:37.487Z,17.40
2022-08-19T06:03:44.867Z,17.50
2022-08-19T06:08:51.787Z,17.60
2022-08-19T06:14:02.319Z,17.80
2022-08-19T06:19:19.345Z,17.80
2022-08-19T06:24:27.031Z,17.90
2022-08-19T06:29:33.536Z,17.90
2022-08-19T06:34:40.676Z,18.00
2022-08-19T06:39:47.077Z,18.20
2022-08-19T06:44:53.204Z,18.20
2022-08-19T06:50:03.916Z,18.40
2022-08-19T06:55:10.752Z,18.50
2022-08-19T07:00:16.039Z,18.50
2022-08-19T07:05:21.999Z,18.70
2022-08-19T07:10:26.713Z,18.90
2022-08-19T07:15:32.008Z,19.10
2022-08-19T07:20:38.080Z,19.40
2022-08-19T07:25:44.644Z,19.50
2022-08-19T07:30:56.821Z,19.50
2022-08-19T07:36:02.743Z,19.60
2022-08-19T07:41:07.614Z,19.60
2022-08-19T07:46:14.357Z,19.60
2022-08-19T07:51:36.523Z,19.50
2022-08-19T07:56:41.734Z,19.60
2022-08-19T08:01:46.599Z,19.50
2022-08-19T08:07:10.611Z,19.60
2022-08-19T08:12:33.474Z,19.60
2022-08-19T08:17:49.297Z,19.60
2022-08-19T08:23:14.830Z,19.60
2022-08-19T08:28:20.145Z,19.70
2022-08-19T08:33:32.858Z,19.80
2022-08-19T08:38:41.714Z,19.90
2022-08-19T08:43:52.116Z,20.30
2022-08-19T08:49:06.597Z,20.70
2022-08-19T08:54:16.213Z,21.30
2022-08-19T08:59:30.385Z,21.70
2022-08-19T09:04:37.754Z,22.10
2022-08-19T09:09:49.910Z,22.20
2022-08-19T09:14:59.551Z,22.60
2022-08-19T09:20:15.959Z,23.70
2022-08-19T09:25:26.913Z,24.40
2022-08-19T09:30:36.952Z,24.90
2022-08-19T09:35:50.105Z,25.40
2022-08-19T09:41:05.683Z,25.50
2022-08-19T09:46:18.093Z,25.20
2022-08-19T09:51:26.932Z,24.70
2022-08-19T09:56:34.577Z,24.10
2022-08-19T10:01:39.037Z,23.80
2022-08-19T10:06:46.723Z,23.60
2022-08-19T10:11:54.646Z,23.00
2022-08-19T10:17:01.235Z,22.90
2022-08-19T10:22:15.320Z,22.20
2022-08-19T10:27:20.990Z,22.20
2022-08-19T10:32:33.765Z,22.70
2022-08-19T10:37:56.695Z,23.10
2022-08-19T10:43:03.877Z,23.40
2022-08-19T10:48:08.327Z,23.70
2022-08-19T10:53:16.981Z,23.70
2022-08-19T10:58:26.133Z,23.60
2022-08-19T11:03:31.588Z,23.70
2022-08-19T11:08:38.449Z,23.60
2022-08-19T11:13:45.372Z,23.70
2022-08-19T11:18:53.802Z,23.60
2022-08-19T11:24:06.772Z,23.80
2022-08-19T11:29:15.715Z,23.90
2022-08-19T11:34:25.229Z,23.90
2022-08-19T11:39:36.537Z,23.70
2022-08-19T11:44:42.708Z,23.70
2022-08-19T11:49:48.584Z,23.70
2022-08-19T11:54:52.997Z,23.70
2022-08-19T11:59:58.991Z,23.80
2022-08-19T12:05:06.163Z,24.60
2022-08-19T12:10:13.739Z,25.30
2022-08-19T12:15:24.370Z,25.80
2022-08-19T12:20:28.818Z,26.60
2022-08-19T12:25:35.602Z,27.40
2022-08-19T12:30:41.683Z,28.80
2022-08-19T12:35:48.172Z,29.40
2022-08-19T12:40:57.081Z,29.60
2022-08-19T12:46:07.026Z,29.60
2022-08-19T12:51:19.055Z,28.60
2022-08-19T12:56:23.732Z,27.20
2022-08-19T13:01:33.687Z,25.70
2022-08-19T13:06:38.457Z,23.70
2022-08-19T13:11:44.374Z,22.00
2022-08-19T13:16:50.087Z,21.40
2022-08-19T13:22:00.117Z,21.20
2022-08-19T13:27:05.362Z,21.00
2022-08-19T13:32:29.254Z,20.80
2022-08-19T13:37:43.814Z,20.80
2022-08-19T13:42:52.219Z,21.10
2022-08-19T13:48:01.009Z,21.50
2022-08-19T13:53:06.055Z,21.90
2022-08-19T13:58:12.663Z,22.00
2022-08-19T14:03:18.902Z,22.20
2022-08-19T14:08:24.622Z,22.70
2022-08-19T14:13:28.979Z,23.20
2022-08-19T14:18:34.623Z,23.50
2022-08-19T14:23:38.855Z,23.80
2022-08-19T14:28:44.380Z,24.10
2022-08-19T14:33:51.346Z,24.00
2022-08-19T14:38:55.866Z,24.10
2022-08-19T14:44:02.345Z,23.80
2022-08-19T14:49:09.416Z,23.30
2022-08-19T14:54:14.184Z,23.00
2022-08-19T14:59:19.276Z,22.90
2022-08-19T15:04:25.265Z,22.40
2022-08-19T15:09:29.890Z,21.90
2022-08-19T15:14:35.572Z,21.60
2022-08-19T15:19:41.458Z,21.30
2022-08-19T15:24:47.902Z,21.20
2022-08-19T15:30:01.041Z,21.20
2022-08-19T15:35:09.726Z,21.10
2022-08-19T15:40:14.598Z,21.20
2022-08-19T15:45:22.847Z,21.20
2022-08-19T15:50:31.845Z,21.10
2022-08-19T15:55:44.165Z,20.50
2022-08-19T16:01:06.256Z,20.00
2022-08-19T16:06:28.009Z,19.90
2022-08-19T16:11:39.500Z,19.80
2022-08-19T16:16:47.044Z,19.90
2022-08-19T16:21:58.311Z,20.00
2022-08-19T16:27:02.710Z,20.00
2022-08-19T16:32:12.839Z,19.90
2022-08-19T16:37:21.646Z,20.10
2022-08-19T16:42:27.269Z,20.30
2022-08-19T16:47:31.939Z,20.50
2022-08-19T16:52:39.195Z,20.60
2022-08-19T16:57:44.517Z,20.80
2022-08-19T17:02:49.047Z,20.70
2022-08-19T17:07:54.665Z,20.80
2022-08-19T17:12:59.004Z,20.80
2022-08-19T17:18:05.895Z,20.80
2022-08-19T17:23:14.580Z,20.70
2022-08-19T17:28:23.848Z,20.50
2022-08-19T17:33:28.527Z,20.50
2022-08-19T17:38:38.703Z,20.40
2022-08-19T17:43:44.056Z,20.00
2022-08-19T17:48:53.116Z,19.60
2022-08-19T17:54:00.942Z,19.30
2022-08-19T17:59:06.380Z,19.30
2022-08-19T18:04:13.803Z,19.30
2022-08-19T18:09:20.736Z,19.40
2022-08-19T18:14:33.999Z,19.50
2022-08-19T18:19:43.509Z,19.60
2022-08-19T18:24:49.875Z,19.80
2022-08-19T18:29:59.442Z,19.80
2022-08-19T18:35:11.161Z,19.70
2022-08-19T18:40:39.895Z,19.50
2022-08-19T18:46:02.751Z,19.30
2022-08-19T18:51:10.097Z,19.10
2022-08-19T18:56:20.304Z,18.90
2022-08-19T19:01:33.418Z,18.70
2022-08-19T19:06:41.497Z,18.60
2022-08-19T19:11:50.399Z,18.40
2022-08-19T19:16:55.268Z,18.30
2022-08-19T19:22:01.094Z,18.30
2022-08-19T19:27:10.228Z,18.20
2022-08-19T19:32:21.907Z,18.20
2022-08-19T19:37:27.348Z,18.10
2022-08-19T19:42:33.438Z,18.00
2022-08-19T19:47:39.493Z,18.10
2022-08-19T19:52:46.663Z,18.00
2022-08-19T19:57:53.618Z,17.90
2022-08-19T20:02:59.324Z,17.80
2022-08-19T20:08:21.598Z,17.80
2022-08-19T20:13:27.791Z,17.80
2022-08-19T20:18:32.371Z,17.80
2022-08-19T20:23:37.455Z,17.60
2022-08-19T20:28:48.387Z,17.60
2022-08-19T20:34:04.706Z,17.60
2022-08-19T20:39:11.011Z,17.60
2022-08-19T20:44:19.082Z,17.50
2022-08-19T20:49:27.168Z,17.50
2022-08-19T20:54:32.170Z,17.40
2022-08-19T20:59:38.221Z,17.30
2022-08-19T21:04:42.709Z,17.30
2022-08-19T21:09:46.979Z,17.20
2022-08-19T21:14:53.875Z,17.10
2022-08-19T21:19:58.264Z,17.00
2022-08-19T21:25:03.629Z,16.90
2022-08-19T21:30:11.700Z,16.90
2022-08-19T21:35:16.294Z,17.00
2022-08-19T21:40:21.877Z,16.90
2022-08-19T21:45:27.799Z,16.80
2022-08-19T21:50:32.939Z,16.90
2022-08-19T21:55:37.710Z,17.00
2022-08-19T22:00:43.911Z,16.90
2022-08-19T22:05:50.869Z,16.90
2022-08-19T22:10:55.800Z,16.80
2022-08-19T22:16:03.306Z,16.80
2022-08-19T22:21:11.880Z,16.80
2022-08-19T22:26:18.788Z,16.80
2022-08-19T22:31:24.761Z,16.80
2022-08-19T22:36:31.661Z,16.70
2022-08-19T22:41:37.594Z,16.80
2022-08-19T22:46:43.387Z,16.80
2022-08-19T22:52:05.280Z,16.80
2022-08-19T22:57:11.650Z,16.80
2022-08-19T23:02:23.504Z,16.90
2022-08-19T23:07:28.000Z,17.00
2022-08-19T23:12:38.023Z,17.10
2022-08-19T23:17:44.694Z,17.20
2022-08-19T23:22:51.577Z,17.20
2022-08-19T23:28:14.603Z,17.20
2022-08-19T23:33:25.369Z,17.20
2022-08-19T23:38:33.144Z,17.20
2022-08-19T23:43:39.636Z,17.20
2022-08-19T23:48:46.550Z,17.20
2022-08-19T23:53:51.419Z,17.10
2022-08-19T23:58:56.037Z,17.10
